sensor_id;sensor_type;location;lat;lon;timestamp;pressure;altitude;pressure_sealevel;temperature;humidity
63654;BME280;49809;47.418;19.080;2022-09-03T00:03:19;100539.13;;;13.33;95.05
63654;BME280;49809;47.418;19.080;2022-09-03T00:07:02;100538.59;;;13.26;95.00
63654;BME280;49809;47.418;19.080;2022-09-03T00:14:25;100539.38;;;13.17;95.03
63654;BME280;49809;47.418;19.080;2022-09-03T00:18:14;100541.22;;;13.11;95.14
63654;BME280;49809;47.418;19.080;2022-09-03T00:21:47;100549.66;;;13.08;95.85
63654;BME280;49809;47.418;19.080;2022-09-03T00:25:41;100532.13;;;13.02;96.11
63654;BME280;49809;47.418;19.080;2022-09-03T00:29:14;100535.81;;;13.01;96.38
63654;BME280;49809;47.418;19.080;2022-09-03T00:33:02;100533.16;;;12.96;96.46
63654;BME280;49809;47.418;19.080;2022-09-03T00:36:44;100533.97;;;12.96;96.92
63654;BME280;49809;47.418;19.080;2022-09-03T00:56:07;100550.62;;;12.77;97.63
63654;BME280;49809;47.418;19.080;2022-09-03T01:07:59;100544.97;;;12.63;97.88
63654;BME280;49809;47.418;19.080;2022-09-03T01:20:01;100554.78;;;12.57;99.12
63654;BME280;49809;47.418;19.080;2022-09-03T01:23:41;100561.34;;;12.50;99.36
63654;BME280;49809;47.418;19.080;2022-09-03T01:31:23;100557.88;;;12.44;99.53
63654;BME280;49809;47.418;19.080;2022-09-03T01:35:33;100561.63;;;12.48;99.96
63654;BME280;49809;47.418;19.080;2022-09-03T01:39:14;100558.94;;;12.43;99.97
63654;BME280;49809;47.418;19.080;2022-09-03T01:46:33;100559.97;;;12.37;99.92
63654;BME280;49809;47.418;19.080;2022-09-03T01:58:09;100560.13;;;12.26;99.61
63654;BME280;49809;47.418;19.080;2022-09-03T02:01:48;100564.88;;;12.18;99.67
63654;BME280;49809;47.418;19.080;2022-09-03T02:05:30;100563.53;;;12.16;100.00
63654;BME280;49809;47.418;19.080;2022-09-03T02:09:13;100563.84;;;12.19;100.00
63654;BME280;49809;47.418;19.080;2022-09-03T02:12:48;100570.72;;;12.20;100.00
63654;BME280;49809;47.418;19.080;2022-09-03T02:16:32;100570.41;;;12.12;100.00
63654;BME280;49809;47.418;19.080;2022-09-03T02:20:06;100567.72;;;12.07;100.00
63654;BME280;49809;47.418;19.080;2022-09-03T02:23:49;100566.91;;;12.06;100.00
63654;BME280;49809;47.418;19.080;2022-09-03T02:27:15;100575.91;;;12.05;100.00
63654;BME280;49809;47.418;19.080;2022-09-03T02:30:45;100571.94;;;12.03;100.00
63654;BME280;49809;47.418;19.080;2022-09-03T02:34:16;100572.72;;;12.03;100.00
63654;BME280;49809;47.418;19.080;2022-09-03T02:37:58;100568.19;;;11.99;100.00
63654;BME280;49809;47.418;19.080;2022-09-03T02:41:34;100577.75;;;12.00;100.00
63654;BME280;49809;47.418;19.080;2022-09-03T02:45:28;100574.03;;;12.01;100.00
63654;BME280;49809;47.418;19.080;2022-09-03T02:49:00;100576.34;;;11.92;100.00
63654;BME280;49809;47.418;19.080;2022-09-03T02:52:29;100576.56;;;11.86;100.00
63654;BME280;49809;47.418;19.080;2022-09-03T02:56:08;100577.62;;;11.85;100.00
63654;BME280;49809;47.418;19.080;2022-09-03T02:59:35;100574.16;;;11.84;100.00
63654;BME280;49809;47.418;19.080;2022-09-03T03:03:15;100573.88;;;11.81;100.00
63654;BME280;49809;47.418;19.080;2022-09-03T03:06:44;100575.72;;;11.80;100.00
63654;BME280;49809;47.418;19.080;2022-09-03T03:10:23;100574.38;;;11.77;100.00
63654;BME280;49809;47.418;19.080;2022-09-03T03:13:54;100562.97;;;11.77;100.00
63654;BME280;49809;47.418;19.080;2022-09-03T03:17:37;100576.50;;;11.75;100.00
63654;BME280;49809;47.418;19.080;2022-09-03T03:21:08;100572.75;;;11.76;100.00
63654;BME280;49809;47.418;19.080;2022-09-03T03:24:40;100572.97;;;11.70;100.00
63654;BME280;49809;47.418;19.080;2022-09-03T03:28:20;100578.00;;;11.71;100.00
63654;BME280;49809;47.418;19.080;2022-09-03T03:31:52;100583.28;;;11.66;100.00
63654;BME280;49809;47.418;19.080;2022-09-03T03:35:32;100587.22;;;11.64;100.00
63654;BME280;49809;47.418;19.080;2022-09-03T03:38:59;100596.47;;;11.61;100.00
63654;BME280;49809;47.418;19.080;2022-09-03T03:42:37;100602.81;;;11.60;100.00
63654;BME280;49809;47.418;19.080;2022-09-03T03:46:04;100595.34;;;11.57;100.00
63654;BME280;49809;47.418;19.080;2022-09-03T03:49:44;100596.44;;;11.56;100.00
63654;BME280;49809;47.418;19.080;2022-09-03T03:53:13;100596.91;;;11.53;100.00
63654;BME280;49809;47.418;19.080;2022-09-03T03:56:45;100606.19;;;11.51;100.00
63654;BME280;49809;47.418;19.080;2022-09-03T04:00:17;100598.47;;;11.49;100.00
63654;BME280;49809;47.418;19.080;2022-09-03T04:03:48;100598.97;;;11.46;100.00
63654;BME280;49809;47.418;19.080;2022-09-03T04:07:17;100605.31;;;11.45;100.00
63654;BME280;49809;47.418;19.080;2022-09-03T04:10:49;100609.56;;;11.46;100.00
63654;BME280;49809;47.418;19.080;2022-09-03T04:14:27;100615.97;;;11.50;100.00
63654;BME280;49809;47.418;19.080;2022-09-03T04:17:54;100615.16;;;11.50;100.00
63654;BME280;49809;47.418;19.080;2022-09-03T04:21:32;100616.78;;;11.51;100.00
63654;BME280;49809;47.418;19.080;2022-09-03T04:24:58;100612.75;;;11.48;100.00
63654;BME280;49809;47.418;19.080;2022-09-03T04:28:41;100615.00;;;11.56;100.00
63654;BME280;49809;47.418;19.080;2022-09-03T04:32:07;100619.72;;;11.54;100.00
63654;BME280;49809;47.418;19.080;2022-09-03T04:36:11;100625.09;;;11.59;100.00
63654;BME280;49809;47.418;19.080;2022-09-03T04:39:37;100626.94;;;11.59;100.00
63654;BME280;49809;47.418;19.080;2022-09-03T04:43:07;100626.69;;;11.60;100.00
63654;BME280;49809;47.418;19.080;2022-09-03T04:46:33;100633.09;;;11.64;100.00
63654;BME280;49809;47.418;19.080;2022-09-03T04:50:12;100627.28;;;11.67;100.00
63654;BME280;49809;47.418;19.080;2022-09-03T04:53:51;100636.91;;;11.73;100.00
63654;BME280;49809;47.418;19.080;2022-09-03T04:57:33;100637.03;;;11.84;100.00
63654;BME280;49809;47.418;19.080;2022-09-03T05:01:19;100639.22;;;11.92;100.00
63654;BME280;49809;47.418;19.080;2022-09-03T05:04:58;100633.72;;;11.98;100.00
63654;BME280;49809;47.418;19.080;2022-09-03T05:08:25;100627.97;;;12.11;100.00
63654;BME280;49809;47.418;19.080;2022-09-03T05:12:03;100631.56;;;12.27;100.00
63654;BME280;49809;47.418;19.080;2022-09-03T05:15:31;100631.13;;;12.40;100.00
63654;BME280;49809;47.418;19.080;2022-09-03T05:19:10;100636.53;;;12.55;100.00
63654;BME280;49809;47.418;19.080;2022-09-03T05:22:37;100636.34;;;12.67;100.00
63654;BME280;49809;47.418;19.080;2022-09-03T05:26:15;100644.41;;;12.82;100.00
63654;BME280;49809;47.418;19.080;2022-09-03T05:29:54;100636.25;;;12.99;100.00
63654;BME280;49809;47.418;19.080;2022-09-03T05:33:23;100642.25;;;13.21;100.00
63654;BME280;49809;47.418;19.080;2022-09-03T05:36:53;100639.12;;;13.39;99.63
63654;BME280;49809;47.418;19.080;2022-09-03T05:40:23;100641.81;;;13.55;98.11
63654;BME280;49809;47.418;19.080;2022-09-03T05:44:01;100645.03;;;13.67;99.06
63654;BME280;49809;47.418;19.080;2022-09-03T05:47:29;100643.47;;;13.86;98.19
63654;BME280;49809;47.418;19.080;2022-09-03T05:51:16;100644.53;;;14.00;97.77
63654;BME280;49809;47.418;19.080;2022-09-03T05:54:48;100641.91;;;14.15;95.64
63654;BME280;49809;47.418;19.080;2022-09-03T05:58:33;100645.91;;;14.28;94.91
63654;BME280;49809;47.418;19.080;2022-09-03T06:02:00;100649.38;;;14.44;93.78
63654;BME280;49809;47.418;19.080;2022-09-03T06:05:48;100647.47;;;14.64;90.67
63654;BME280;49809;47.418;19.080;2022-09-03T06:09:18;100646.09;;;14.82;88.60
63654;BME280;49809;47.418;19.080;2022-09-03T06:12:58;100648.22;;;15.00;87.92
63654;BME280;49809;47.418;19.080;2022-09-03T06:16:30;100645.72;;;15.19;86.79
63654;BME280;49809;47.418;19.080;2022-09-03T06:20:11;100641.41;;;15.33;86.06
63654;BME280;49809;47.418;19.080;2022-09-03T06:23:51;100651.22;;;15.53;83.19
63654;BME280;49809;47.418;19.080;2022-09-03T06:27:20;100644.37;;;15.81;83.25
63654;BME280;49809;47.418;19.080;2022-09-03T06:30:50;100638.66;;;15.97;82.57
63654;BME280;49809;47.418;19.080;2022-09-03T06:34:20;100642.75;;;16.19;81.94
63654;BME280;49809;47.418;19.080;2022-09-03T06:37:51;100639.84;;;16.44;80.39
63654;BME280;49809;47.418;19.080;2022-09-03T06:41:29;100641.03;;;16.62;78.23
63654;BME280;49809;47.418;19.080;2022-09-03T06:45:04;100633.63;;;16.82;78.22
63654;BME280;49809;47.418;19.080;2022-09-03T06:48:42;100620.91;;;17.17;76.99
63654;BME280;49809;47.418;19.080;2022-09-03T06:52:16;100623.16;;;17.28;75.03
63654;BME280;49809;47.418;19.080;2022-09-03T06:56:03;100628.03;;;17.45;74.54
63654;BME280;49809;47.418;19.080;2022-09-03T06:59:29;100628.06;;;17.83;72.69
63654;BME280;49809;47.418;19.080;2022-09-03T07:03:07;100628.19;;;18.10;71.56
63654;BME280;49809;47.418;19.080;2022-09-03T07:06:41;100625.09;;;18.16;71.36
63654;BME280;49809;47.418;19.080;2022-09-03T07:10:12;100627.56;;;18.45;69.37
63654;BME280;49809;47.418;19.080;2022-09-03T07:13:46;100626.94;;;18.81;68.37
63654;BME280;49809;47.418;19.080;2022-09-03T07:17:13;100624.75;;;18.83;67.19
63654;BME280;49809;47.418;19.080;2022-09-03T07:20:50;100623.34;;;18.85;66.75
63654;BME280;49809;47.418;19.080;2022-09-03T07:24:09;100621.44;;;19.13;64.59
63654;BME280;49809;47.418;19.080;2022-09-03T07:27:54;100624.94;;;18.73;64.69
63654;BME280;49809;47.418;19.080;2022-09-03T07:31:32;100620.72;;;19.48;63.68
63654;BME280;49809;47.418;19.080;2022-09-03T07:35:01;100619.31;;;19.51;62.94
63654;BME280;49809;47.418;19.080;2022-09-03T07:38:43;100622.84;;;19.74;62.26
63654;BME280;49809;47.418;19.080;2022-09-03T07:42:10;100622.47;;;20.11;60.27
63654;BME280;49809;47.418;19.080;2022-09-03T07:45:51;100626.06;;;20.29;59.60
63654;BME280;49809;47.418;19.080;2022-09-03T07:49:19;100633.50;;;20.94;59.71
63654;BME280;49809;47.418;19.080;2022-09-03T07:52:55;100631.78;;;21.06;58.58
63654;BME280;49809;47.418;19.080;2022-09-03T07:56:31;100633.66;;;20.97;56.87
63654;BME280;49809;47.418;19.080;2022-09-03T08:00:16;100636.78;;;21.21;58.72
63654;BME280;49809;47.418;19.080;2022-09-03T08:04:00;100631.62;;;21.68;56.00
63654;BME280;49809;47.418;19.080;2022-09-03T08:07:32;100634.47;;;21.63;56.93
63654;BME280;49809;47.418;19.080;2022-09-03T08:11:18;100636.97;;;22.20;55.74
63654;BME280;49809;47.418;19.080;2022-09-03T08:14:49;100631.84;;;22.90;53.95
63654;BME280;49809;47.418;19.080;2022-09-03T08:18:21;100633.41;;;23.21;50.34
63654;BME280;49809;47.418;19.080;2022-09-03T08:22:06;100637.94;;;23.58;51.98
63654;BME280;49809;47.418;19.080;2022-09-03T08:25:33;100638.41;;;24.35;49.78
63654;BME280;49809;47.418;19.080;2022-09-03T08:29:12;100629.75;;;24.53;49.30
63654;BME280;49809;47.418;19.080;2022-09-03T08:32:41;100629.56;;;24.95;45.93
63654;BME280;49809;47.418;19.080;2022-09-03T08:36:28;100629.78;;;25.14;46.17
63654;BME280;49809;47.418;19.080;2022-09-03T08:39:58;100634.31;;;25.10;45.66
63654;BME280;49809;47.418;19.080;2022-09-03T08:43:27;100631.34;;;25.27;45.19
63654;BME280;49809;47.418;19.080;2022-09-03T08:47:21;100640.84;;;25.73;42.87
63654;BME280;49809;47.418;19.080;2022-09-03T08:50:51;100638.62;;;26.19;42.20
63654;BME280;49809;47.418;19.080;2022-09-03T08:54:38;100655.03;;;24.69;47.08
63654;BME280;49809;47.418;19.080;2022-09-03T09:02:03;100626.91;;;25.87;43.10
63654;BME280;49809;47.418;19.080;2022-09-03T09:13:29;100626.97;;;25.75;43.99
63654;BME280;49809;47.418;19.080;2022-09-03T09:21:14;100621.78;;;26.41;42.14
63654;BME280;49809;47.418;19.080;2022-09-03T09:24:58;100618.72;;;27.98;39.16
63654;BME280;49809;47.418;19.080;2022-09-03T09:28:34;100624.34;;;29.00;37.54
63654;BME280;49809;47.418;19.080;2022-09-03T09:32:15;100625.84;;;28.97;35.71
63654;BME280;49809;47.418;19.080;2022-09-03T09:35:48;100613.31;;;29.45;35.85
63654;BME280;49809;47.418;19.080;2022-09-03T09:39:28;100604.41;;;28.95;36.49
63654;BME280;49809;47.418;19.080;2022-09-03T09:43:04;100610.66;;;29.86;34.26
63654;BME280;49809;47.418;19.080;2022-09-03T09:46:47;100616.50;;;28.94;35.82
63654;BME280;49809;47.418;19.080;2022-09-03T09:50:26;100614.22;;;29.56;34.84
63654;BME280;49809;47.418;19.080;2022-09-03T09:54:15;100612.09;;;29.72;34.57
63654;BME280;49809;47.418;19.080;2022-09-03T09:58:12;100614.62;;;29.58;35.04
63654;BME280;49809;47.418;19.080;2022-09-03T10:01:43;100619.63;;;28.05;36.71
63654;BME280;49809;47.418;19.080;2022-09-03T10:05:30;100617.69;;;29.23;35.28
63654;BME280;49809;47.418;19.080;2022-09-03T10:09:31;100603.97;;;27.60;38.51
63654;BME280;49809;47.418;19.080;2022-09-03T10:13:23;100616.13;;;29.26;34.43
63654;BME280;49809;47.418;19.080;2022-09-03T10:17:27;100612.09;;;30.06;34.53
63654;BME280;49809;47.418;19.080;2022-09-03T10:21:17;100616.09;;;30.59;33.27
63654;BME280;49809;47.418;19.080;2022-09-03T10:24:57;100613.72;;;31.09;31.51
63654;BME280;49809;47.418;19.080;2022-09-03T10:28:40;100618.22;;;29.32;34.75
63654;BME280;49809;47.418;19.080;2022-09-03T10:32:22;100607.19;;;30.70;32.20
63654;BME280;49809;47.418;19.080;2022-09-03T10:36:20;100603.03;;;30.02;33.49
63654;BME280;49809;47.418;19.080;2022-09-03T10:51:57;100601.50;;;30.96;30.21
63654;BME280;49809;47.418;19.080;2022-09-03T11:07:06;100574.94;;;31.79;29.44
63654;BME280;49809;47.418;19.080;2022-09-03T11:10:42;100573.03;;;32.05;28.34
63654;BME280;49809;47.418;19.080;2022-09-03T11:18:47;100578.72;;;28.70;32.24
63654;BME280;49809;47.418;19.080;2022-09-03T11:22:30;100574.09;;;29.27;33.45
63654;BME280;49809;47.418;19.080;2022-09-03T11:26:01;100581.38;;;29.46;31.67
63654;BME280;49809;47.418;19.080;2022-09-03T11:29:53;100579.16;;;30.32;29.72
63654;BME280;49809;47.418;19.080;2022-09-03T11:33:23;100581.31;;;29.42;29.30
63654;BME280;49809;47.418;19.080;2022-09-03T11:37:27;100587.59;;;31.15;28.84
63654;BME280;49809;47.418;19.080;2022-09-03T11:44:48;100575.91;;;31.25;29.11
63654;BME280;49809;47.418;19.080;2022-09-03T11:48:40;100576.16;;;31.85;26.38
63654;BME280;49809;47.418;19.080;2022-09-03T11:52:31;100572.22;;;31.79;27.26
63654;BME280;49809;47.418;19.080;2022-09-03T11:56:21;100573.47;;;31.10;28.88
63654;BME280;49809;47.418;19.080;2022-09-03T12:00:10;100578.53;;;32.51;26.23
63654;BME280;49809;47.418;19.080;2022-09-03T12:03:56;100578.12;;;30.07;28.85
63654;BME280;49809;47.418;19.080;2022-09-03T12:07:30;100575.00;;;31.03;28.25
63654;BME280;49809;47.418;19.080;2022-09-03T12:11:23;100583.19;;;31.90;26.56
63654;BME280;49809;47.418;19.080;2022-09-03T12:15:15;100588.63;;;31.00;28.12
63654;BME280;49809;47.418;19.080;2022-09-03T12:18:39;100578.47;;;31.80;28.33
63654;BME280;49809;47.418;19.080;2022-09-03T12:21:51;100580.81;;;31.78;28.76
63654;BME280;49809;47.418;19.080;2022-09-03T12:25:24;100577.94;;;29.22;31.73
63654;BME280;49809;47.418;19.080;2022-09-03T12:28:57;100570.91;;;27.39;34.84
63654;BME280;49809;47.418;19.080;2022-09-03T12:32:36;100563.25;;;28.06;33.94
63654;BME280;49809;47.418;19.080;2022-09-03T12:36:08;100564.66;;;28.42;32.11
63654;BME280;49809;47.418;19.080;2022-09-03T12:39:37;100562.63;;;28.35;33.75
63654;BME280;49809;47.418;19.080;2022-09-03T12:47:16;100555.22;;;27.33;34.50
63654;BME280;49809;47.418;19.080;2022-09-03T12:51:02;100551.91;;;26.38;36.22
63654;BME280;49809;47.418;19.080;2022-09-03T12:54:30;100558.41;;;26.33;35.64
63654;BME280;49809;47.418;19.080;2022-09-03T13:01:52;100554.31;;;25.96;37.79
63654;BME280;49809;47.418;19.080;2022-09-03T13:05:53;100552.41;;;26.44;37.49
63654;BME280;49809;47.418;19.080;2022-09-03T13:09:24;100545.22;;;26.04;36.75
63654;BME280;49809;47.418;19.080;2022-09-03T13:13:20;100555.16;;;26.28;37.96
63654;BME280;49809;47.418;19.080;2022-09-03T13:17:04;100553.62;;;25.43;39.16
63654;BME280;49809;47.418;19.080;2022-09-03T13:21:14;100549.22;;;25.11;39.49
63654;BME280;49809;47.418;19.080;2022-09-03T13:40:43;100522.34;;;25.46;37.19
63654;BME280;49809;47.418;19.080;2022-09-03T13:48:13;100525.72;;;25.43;38.74
63654;BME280;49809;47.418;19.080;2022-09-03T13:52:04;100526.03;;;25.81;39.65
63654;BME280;49809;47.418;19.080;2022-09-03T14:06:45;100517.28;;;25.32;39.89
63654;BME280;49809;47.418;19.080;2022-09-03T14:22:04;100511.31;;;24.99;41.19
63654;BME280;49809;47.418;19.080;2022-09-03T14:25:32;100514.66;;;25.08;39.23
63654;BME280;49809;47.418;19.080;2022-09-03T15:08:40;100498.13;;;24.97;39.35
63654;BME280;49809;47.418;19.080;2022-09-03T15:16:02;100495.03;;;25.11;39.78
63654;BME280;49809;47.418;19.080;2022-09-03T15:19:59;100505.25;;;24.78;40.72
63654;BME280;49809;47.418;19.080;2022-09-03T15:23:51;100513.81;;;24.92;40.61
63654;BME280;49809;47.418;19.080;2022-09-03T15:28:04;100512.69;;;24.56;40.86
63654;BME280;49809;47.418;19.080;2022-09-03T15:35:37;100502.19;;;24.55;41.57
63654;BME280;49809;47.418;19.080;2022-09-03T15:39:30;100500.31;;;24.43;42.61
63654;BME280;49809;47.418;19.080;2022-09-03T15:43:10;100496.25;;;24.25;42.72
63654;BME280;49809;47.418;19.080;2022-09-03T15:47:06;100493.03;;;24.11;43.01
63654;BME280;49809;47.418;19.080;2022-09-03T15:51:44;100494.41;;;24.05;43.15
63654;BME280;49809;47.418;19.080;2022-09-03T15:59:18;100499.44;;;23.94;44.01
63654;BME280;49809;47.418;19.080;2022-09-03T16:03:20;100500.66;;;23.85;45.13
63654;BME280;49809;47.418;19.080;2022-09-03T16:07:20;100497.72;;;23.77;44.18
63654;BME280;49809;47.418;19.080;2022-09-03T16:15:08;100494.72;;;23.46;45.45
63654;BME280;49809;47.418;19.080;2022-09-03T16:18:45;100494.16;;;23.32;45.59
63654;BME280;49809;47.418;19.080;2022-09-03T16:22:31;100496.28;;;23.26;45.61
63654;BME280;49809;47.418;19.080;2022-09-03T16:26:26;100496.56;;;23.13;46.28
63654;BME280;49809;47.418;19.080;2022-09-03T16:30:11;100492.97;;;23.00;46.87
63654;BME280;49809;47.418;19.080;2022-09-03T16:34:01;100496.12;;;22.81;47.09
63654;BME280;49809;47.418;19.080;2022-09-03T16:41:43;100497.72;;;22.53;48.12
63654;BME280;49809;47.418;19.080;2022-09-03T16:45:30;100498.25;;;22.38;49.35
63654;BME280;49809;47.418;19.080;2022-09-03T16:49:31;100511.47;;;22.31;48.78
63654;BME280;49809;47.418;19.080;2022-09-03T17:08:43;100509.78;;;21.19;53.30
63654;BME280;49809;47.418;19.080;2022-09-03T17:20:14;100524.38;;;20.62;56.15
63654;BME280;49809;47.418;19.080;2022-09-03T17:39:47;100543.75;;;19.80;61.77
63654;BME280;49809;47.418;19.080;2022-09-03T17:47:31;100552.00;;;19.47;63.64
63654;BME280;49809;47.418;19.080;2022-09-03T17:51:11;100557.69;;;19.32;64.45
63654;BME280;49809;47.418;19.080;2022-09-03T17:54:59;100555.06;;;19.19;65.58
63654;BME280;49809;47.418;19.080;2022-09-03T17:58:41;100553.50;;;19.04;66.20
63654;BME280;49809;47.418;19.080;2022-09-03T18:06:35;100553.34;;;18.73;68.36
63654;BME280;49809;47.418;19.080;2022-09-03T18:10:31;100561.09;;;18.61;69.31
63654;BME280;49809;47.418;19.080;2022-09-03T18:18:33;100574.62;;;18.37;71.60
63654;BME280;49809;47.418;19.080;2022-09-03T18:22:16;100580.78;;;18.24;72.31
63654;BME280;49809;47.418;19.080;2022-09-03T18:26:07;100581.53;;;18.11;72.55
63654;BME280;49809;47.418;19.080;2022-09-03T18:30:13;100592.44;;;18.01;73.32
63654;BME280;49809;47.418;19.080;2022-09-03T18:34:03;100595.75;;;17.93;74.65
63654;BME280;49809;47.418;19.080;2022-09-03T18:38:04;100593.25;;;17.83;74.98
63654;BME280;49809;47.418;19.080;2022-09-03T18:42:08;100589.16;;;17.71;76.45
63654;BME280;49809;47.418;19.080;2022-09-03T18:46:06;100601.28;;;17.64;76.54
63654;BME280;49809;47.418;19.080;2022-09-03T18:50:00;100593.37;;;17.54;77.23
63654;BME280;49809;47.418;19.080;2022-09-03T19:02:06;100603.13;;;17.26;78.42
63654;BME280;49809;47.418;19.080;2022-09-03T19:06:22;100590.41;;;17.18;79.71
63654;BME280;49809;47.418;19.080;2022-09-03T19:10:21;100592.63;;;17.11;78.85
63654;BME280;49809;47.418;19.080;2022-09-03T19:14:33;100602.97;;;16.99;79.74
63654;BME280;49809;47.418;19.080;2022-09-03T19:22:43;100603.13;;;16.83;79.93
63654;BME280;49809;47.418;19.080;2022-09-03T19:39:10;100606.59;;;16.60;81.41
63654;BME280;49809;47.418;19.080;2022-09-03T19:43:20;100606.31;;;16.57;81.48
63654;BME280;49809;47.418;19.080;2022-09-03T19:47:22;100614.69;;;16.50;82.15
63654;BME280;49809;47.418;19.080;2022-09-03T19:51:39;100609.41;;;16.45;82.47
63654;BME280;49809;47.418;19.080;2022-09-03T19:55:30;100621.47;;;16.37;83.39
63654;BME280;49809;47.418;19.080;2022-09-03T19:59:24;100621.53;;;16.32;84.21
63654;BME280;49809;47.418;19.080;2022-09-03T20:03:15;100625.59;;;16.25;84.30
63654;BME280;49809;47.418;19.080;2022-09-03T20:07:14;100621.38;;;16.19;84.83
63654;BME280;49809;47.418;19.080;2022-09-03T20:11:03;100633.97;;;16.13;85.09
63654;BME280;49809;47.418;19.080;2022-09-03T20:14:49;100639.88;;;16.10;85.06
63654;BME280;49809;47.418;19.080;2022-09-03T20:22:29;100653.06;;;15.96;85.90
63654;BME280;49809;47.418;19.080;2022-09-03T20:26:27;100653.91;;;15.92;86.27
63654;BME280;49809;47.418;19.080;2022-09-03T20:30:22;100658.19;;;15.88;86.98
63654;BME280;49809;47.418;19.080;2022-09-03T20:34:16;100657.94;;;15.84;86.46
63654;BME280;49809;47.418;19.080;2022-09-03T21:00:55;100682.69;;;15.46;87.84
63654;BME280;49809;47.418;19.080;2022-09-03T21:05:09;100683.78;;;15.40;87.96
63654;BME280;49809;47.418;19.080;2022-09-03T21:12:37;100691.78;;;15.35;88.05
63654;BME280;49809;47.418;19.080;2022-09-03T21:16:27;100694.50;;;15.30;87.53
63654;BME280;49809;47.418;19.080;2022-09-03T21:20:06;100686.53;;;15.25;88.41
63654;BME280;49809;47.418;19.080;2022-09-03T21:24:18;100685.72;;;15.24;89.15
63654;BME280;49809;47.418;19.080;2022-09-03T21:28:00;100686.00;;;15.17;89.67
63654;BME280;49809;47.418;19.080;2022-09-03T21:31:41;100697.47;;;15.18;90.51
63654;BME280;49809;47.418;19.080;2022-09-03T21:35:27;100692.41;;;15.11;89.90
63654;BME280;49809;47.418;19.080;2022-09-03T21:39:29;100693.22;;;15.07;89.95
63654;BME280;49809;47.418;19.080;2022-09-03T21:43:03;100697.25;;;15.04;90.00
63654;BME280;49809;47.418;19.080;2022-09-03T21:47:10;100701.25;;;14.97;90.26
63654;BME280;49809;47.418;19.080;2022-09-03T21:50:57;100701.00;;;14.93;90.71
63654;BME280;49809;47.418;19.080;2022-09-03T21:54:33;100709.00;;;14.93;91.42
63654;BME280;49809;47.418;19.080;2022-09-03T22:02:02;100718.06;;;14.87;91.33
63654;BME280;49809;47.418;19.080;2022-09-03T22:05:54;100714.87;;;14.85;91.40
63654;BME280;49809;47.418;19.080;2022-09-03T22:09:44;100711.16;;;14.81;91.33
63654;BME280;49809;47.418;19.080;2022-09-03T22:17:33;100709.00;;;14.78;91.58
63654;BME280;49809;47.418;19.080;2022-09-03T22:21:22;100707.41;;;14.77;91.16
63654;BME280;49809;47.418;19.080;2022-09-03T22:29:10;100712.22;;;14.70;91.83
63654;BME280;49809;47.418;19.080;2022-09-03T22:36:51;100711.97;;;14.71;92.06
63654;BME280;49809;47.418;19.080;2022-09-03T22:40:45;100714.91;;;14.70;93.39
63654;BME280;49809;47.418;19.080;2022-09-03T22:52:38;100706.34;;;14.63;94.72
63654;BME280;49809;47.418;19.080;2022-09-03T22:56:21;100714.34;;;14.63;94.72
63654;BME280;49809;47.418;19.080;2022-09-03T23:00:08;100703.97;;;14.61;94.75
63654;BME280;49809;47.418;19.080;2022-09-03T23:03:56;100706.34;;;14.63;94.65
63654;BME280;49809;47.418;19.080;2022-09-03T23:15:05;100710.12;;;14.57;95.00
63654;BME280;49809;47.418;19.080;2022-09-03T23:18:49;100718.09;;;14.52;94.83
63654;BME280;49809;47.418;19.080;2022-09-03T23:22:39;100714.34;;;14.48;95.12
63654;BME280;49809;47.418;19.080;2022-09-03T23:26:34;100716.75;;;14.44;95.23
63654;BME280;49809;47.418;19.080;2022-09-03T23:30:06;100718.37;;;14.45;94.71
63654;BME280;49809;47.418;19.080;2022-09-03T23:33:48;100721.28;;;14.39;95.45
63654;BME280;49809;47.418;19.080;2022-09-03T23:41:16;100721.28;;;14.39;96.06
